Time;durP1;ratioP1;P1;durP2;ratioP2;P2;SDS_P1;SDS_P2;PMS_P1;PMS_P2;Temp;Humidity;BMP_temperature;BMP_pressure;BME280_temperature;BME280_humidity;BME280_pressure;Samples;Min_cycle;Max_cycle;Signal;HPM_P1;HPM_P2
2022/05/13 00:02:26;;;;;;;11.77;4.63;;;;;;;;;;6197546;28;20015;-88
2022/05/13 00:05:27;;;;;;;17.90;5.17;;;;;;;;;;6181831;28;20038;-88
2022/05/13 00:08:28;;;;;;;19.25;5.57;;;;;;;;;;6188549;28;20270;-87
2022/05/13 00:11:28;;;;;;;14.95;6.00;;;;;;;;;;6189100;28;20022;-87
2022/05/13 00:14:28;;;;;;;17.55;4.45;;;;;;;;;;6184401;28;20061;-88
2022/05/13 00:17:29;;;;;;;16.25;4.70;;;;;;;;;;6191864;28;20035;-87
2022/05/13 00:20:29;;;;;;;9.77;4.30;;;;;;;;;;6192321;28;20018;-88
2022/05/13 00:23:29;;;;;;;15.03;5.07;;;;;;;;;;6180691;28;20031;-88
2022/05/13 00:26:29;;;;;;;13.32;5.00;;;;;;;;;;6179875;28;20269;-87
2022/05/13 00:29:30;;;;;;;13.80;5.23;;;;;;;;;;6182530;28;20080;-87
2022/05/13 00:32:30;;;;;;;23.77;6.53;;;;;;;;;;6205983;28;20269;-87
2022/05/13 00:35:30;;;;;;;12.80;4.90;;;;;;;;;;6178743;28;20626;-87
2022/05/13 00:38:31;;;;;;;15.23;6.22;;;;;;;;;;6179808;28;20814;-88
2022/05/13 00:41:31;;;;;;;18.05;5.90;;;;;;;;;;6197035;28;20032;-88
2022/05/13 00:44:32;;;;;;;16.35;5.35;;;;;;;;;;6196291;28;20031;-88
2022/05/13 00:47:32;;;;;;;17.43;5.47;;;;;;;;;;6201222;28;20033;-87
2022/05/13 00:50:34;;;;;;;14.27;6.05;;;;;;;;;;6174352;28;20361;-88
2022/05/13 00:53:35;;;;;;;12.07;5.03;;;;;;;;;;6188383;28;20037;-88
2022/05/13 00:56:35;;;;;;;13.88;5.68;;;;;;;;;;6189574;28;20027;-88
2022/05/13 00:59:37;;;;;;;13.38;4.25;;;;;;;;;;6189956;28;20018;-88
2022/05/13 01:02:38;;;;;;;10.05;5.10;;;;;;;;;;6185488;28;20018;-88
2022/05/13 01:05:41;;;;;;;19.45;5.55;;;;;;;;;;6178625;28;20030;-88
2022/05/13 01:08:41;;;;;;;9.48;5.15;;;;;;;;;;6181223;28;20019;-88
2022/05/13 01:11:43;;;;;;;11.43;4.43;;;;;;;;;;6192285;28;20022;-88
2022/05/13 01:14:46;;;;;;;15.48;4.57;;;;;;;;;;6184921;28;20038;-88
2022/05/13 01:21:08;;;;;;;13.60;4.18;;;;;;;;;;6203781;28;20089;-87
2022/05/13 01:24:08;;;;;;;20.65;5.45;;;;;;;;;;6182461;28;20496;-88
2022/05/13 01:27:08;;;;;;;18.13;6.70;;;;;;;;;;6179695;28;20023;-88
2022/05/13 01:30:10;;;;;;;11.18;5.57;;;;;;;;;;6188913;28;20019;-88
2022/05/13 01:33:11;;;;;;;13.77;4.80;;;;;;;;;;6194656;28;20056;-88
2022/05/13 01:36:12;;;;;;;15.15;5.00;;;;;;;;;;6194302;28;20027;-88
2022/05/13 01:39:13;;;;;;;13.05;4.57;;;;;;;;;;6190713;28;20022;-88
2022/05/13 01:42:13;;;;;;;12.50;5.18;;;;;;;;;;6194684;28;20068;-88
2022/05/13 01:45:13;;;;;;;17.97;5.07;;;;;;;;;;6178442;28;20483;-88
2022/05/13 01:48:14;;;;;;;14.73;6.32;;;;;;;;;;6176983;28;20778;-88
2022/05/13 01:51:15;;;;;;;15.00;6.33;;;;;;;;;;6188689;28;20068;-88
2022/05/13 01:54:15;;;;;;;14.88;6.22;;;;;;;;;;6197241;28;20035;-88
2022/05/13 01:57:16;;;;;;;14.20;5.53;;;;;;;;;;6199120;28;20065;-88
2022/05/13 02:00:16;;;;;;;11.65;5.10;;;;;;;;;;6200638;28;20315;-88
2022/05/13 02:06:36;;;;;;;14.85;5.72;;;;;;;;;;6189758;28;20035;-88
2022/05/13 02:09:36;;;;;;;12.87;6.07;;;;;;;;;;6187703;28;20400;-89
2022/05/13 02:12:36;;;;;;;15.98;5.22;;;;;;;;;;6186941;28;20329;-88
2022/05/13 02:15:36;;;;;;;12.93;5.07;;;;;;;;;;6186635;28;20437;-88
2022/05/13 02:18:37;;;;;;;9.67;4.27;;;;;;;;;;6179972;28;20029;-88
2022/05/13 02:21:37;;;;;;;12.23;4.53;;;;;;;;;;6188524;28;20263;-88
2022/05/13 02:24:37;;;;;;;8.88;4.63;;;;;;;;;;6188577;28;20266;-87
2022/05/13 02:27:37;;;;;;;21.27;5.72;;;;;;;;;;6186397;28;20133;-88
2022/05/13 02:30:38;;;;;;;16.52;5.28;;;;;;;;;;6193241;28;20023;-88
2022/05/13 02:33:38;;;;;;;20.23;5.85;;;;;;;;;;6180903;28;20059;-88
2022/05/13 02:36:39;;;;;;;13.38;5.57;;;;;;;;;;6194370;28;20038;-88
2022/05/13 02:39:39;;;;;;;11.20;4.68;;;;;;;;;;6187524;28;20019;-88
2022/05/13 02:42:39;;;;;;;10.43;4.72;;;;;;;;;;6186986;28;20056;-88
2022/05/13 02:45:40;;;;;;;12.20;5.20;;;;;;;;;;6181704;28;20031;-88
2022/05/13 02:48:40;;;;;;;12.50;4.35;;;;;;;;;;6188780;28;20056;-88
2022/05/13 02:51:42;;;;;;;14.25;4.70;;;;;;;;;;6187030;28;20027;-88
2022/05/13 02:54:42;;;;;;;14.50;5.28;;;;;;;;;;6195006;28;20098;-88
2022/05/13 02:57:42;;;;;;;11.67;5.60;;;;;;;;;;6196142;28;20022;-88
2022/05/13 03:00:44;;;;;;;13.70;5.38;;;;;;;;;;6182893;28;20349;-88
2022/05/13 03:03:45;;;;;;;10.23;4.53;;;;;;;;;;6201493;28;20027;-88
2022/05/13 03:06:45;;;;;;;9.65;4.25;;;;;;;;;;6200353;28;20655;-88
2022/05/13 03:09:47;;;;;;;13.80;4.83;;;;;;;;;;6180993;28;20082;-87
2022/05/13 03:12:47;;;;;;;12.77;4.90;;;;;;;;;;6161736;28;20266;-87
2022/05/13 03:15:48;;;;;;;14.77;4.43;;;;;;;;;;6189461;28;20027;-87
2022/05/13 03:18:49;;;;;;;19.50;4.90;;;;;;;;;;6205311;28;20022;-87
2022/05/13 03:21:49;;;;;;;11.20;4.53;;;;;;;;;;6196057;28;20028;-87
2022/05/13 03:24:50;;;;;;;14.63;4.30;;;;;;;;;;6192217;28;20367;-88
2022/05/13 03:27:50;;;;;;;16.45;4.70;;;;;;;;;;6192216;28;20018;-88
2022/05/13 03:30:50;;;;;;;12.57;5.47;;;;;;;;;;6183485;28;20119;-87
2022/05/13 03:33:51;;;;;;;9.98;5.05;;;;;;;;;;6180748;28;20027;-87
2022/05/13 03:36:51;;;;;;;13.48;4.43;;;;;;;;;;6180169;28;20052;-87
2022/05/13 03:39:51;;;;;;;20.17;7.27;;;;;;;;;;6179703;28;20007;-88
2022/05/13 03:42:51;;;;;;;12.63;6.17;;;;;;;;;;6187072;28;20265;-86
2022/05/13 03:45:52;;;;;;;19.15;4.60;;;;;;;;;;6190191;28;20273;-87
2022/05/13 03:48:52;;;;;;;7.60;3.97;;;;;;;;;;6204797;28;20244;-87
2022/05/13 03:51:52;;;;;;;10.63;6.20;;;;;;;;;;6201976;28;20266;-87
2022/05/13 03:54:53;;;;;;;10.53;4.87;;;;;;;;;;6180205;28;20286;-87
2022/05/13 03:57:53;;;;;;;10.90;3.88;;;;;;;;;;6183291;28;20261;-88
2022/05/13 04:00:53;;;;;;;12.20;4.53;;;;;;;;;;6197639;28;20432;-87
2022/05/13 04:03:54;;;;;;;9.70;4.93;;;;;;;;;;6184828;28;20273;-88
2022/05/13 04:10:13;;;;;;;8.88;4.28;;;;;;;;;;6187529;28;20745;-87
2022/05/13 04:16:32;;;;;;;8.02;3.53;;;;;;;;;;6183808;28;20035;-87
2022/05/13 04:19:32;;;;;;;11.95;4.28;;;;;;;;;;6202979;28;20037;-88
2022/05/13 04:22:33;;;;;;;11.23;4.00;;;;;;;;;;6195770;28;20042;-88
2022/05/13 04:25:33;;;;;;;8.70;4.27;;;;;;;;;;6183063;28;20750;-88
2022/05/13 04:28:33;;;;;;;10.18;4.88;;;;;;;;;;6190005;28;20262;-88
2022/05/13 04:31:35;;;;;;;9.43;4.53;;;;;;;;;;6173521;28;20030;-88
2022/05/13 04:34:35;;;;;;;19.17;4.78;;;;;;;;;;6182421;28;20090;-88
2022/05/13 04:37:37;;;;;;;13.13;6.57;;;;;;;;;;6184519;28;20753;-88
2022/05/13 04:40:37;;;;;;;9.75;4.30;;;;;;;;;;6200185;28;20270;-88
2022/05/13 04:43:37;;;;;;;10.20;4.00;;;;;;;;;;6183787;28;20023;-87
2022/05/13 04:46:37;;;;;;;7.60;3.90;;;;;;;;;;6170384;28;20297;-88
2022/05/13 04:49:38;;;;;;;8.20;3.57;;;;;;;;;;6181836;28;20039;-88
2022/05/13 04:52:38;;;;;;;7.40;4.10;;;;;;;;;;6175040;28;20277;-88
2022/05/13 04:55:40;;;;;;;9.60;3.70;;;;;;;;;;6171229;28;20381;-88
2022/05/13 04:58:42;;;;;;;11.70;3.90;;;;;;;;;;6170344;28;20046;-88
2022/05/13 05:01:42;;;;;;;7.20;3.70;;;;;;;;;;6180137;28;20031;-88
2022/05/13 05:04:43;;;;;;;13.60;4.13;;;;;;;;;;6184914;28;20061;-88
2022/05/13 05:07:43;;;;;;;9.77;3.75;;;;;;;;;;6179797;28;20038;-88
2022/05/13 05:10:44;;;;;;;7.47;3.73;;;;;;;;;;6187158;28;20022;-87
2022/05/13 05:13:47;;;;;;;6.72;3.00;;;;;;;;;;6171597;28;20053;-87
2022/05/13 05:16:47;;;;;;;9.93;3.72;;;;;;;;;;6170674;28;20414;-87
2022/05/13 05:19:47;;;;;;;9.03;3.43;;;;;;;;;;6173987;28;20027;-88
2022/05/13 05:22:47;;;;;;;6.13;3.23;;;;;;;;;;6190450;28;20727;-87
2022/05/13 05:25:48;;;;;;;11.07;3.80;;;;;;;;;;6173110;28;20027;-87
2022/05/13 05:28:51;;;;;;;8.20;3.13;;;;;;;;;;6164918;28;20092;-88
2022/05/13 05:31:51;;;;;;;10.43;2.80;;;;;;;;;;6171284;28;20050;-88
2022/05/13 05:34:51;;;;;;;7.30;3.10;;;;;;;;;;6186259;28;20034;-88
2022/05/13 05:37:52;;;;;;;11.57;3.30;;;;;;;;;;6188184;28;20096;-88
2022/05/13 05:40:52;;;;;;;10.17;3.20;;;;;;;;;;6171367;28;20029;-88
2022/05/13 05:43:52;;;;;;;9.00;3.00;;;;;;;;;;6184070;28;20023;-87
2022/05/13 05:46:52;;;;;;;9.00;3.57;;;;;;;;;;6181149;28;20077;-88
2022/05/13 05:49:53;;;;;;;5.43;3.53;;;;;;;;;;6180905;28;20042;-88
2022/05/13 05:52:53;;;;;;;10.87;3.60;;;;;;;;;;6163816;28;20023;-88
2022/05/13 05:59:12;;;;;;;9.55;2.67;;;;;;;;;;6174414;28;20031;-88
2022/05/13 06:02:12;;;;;;;9.10;2.60;;;;;;;;;;6170750;28;20049;-88
2022/05/13 06:05:13;;;;;;;5.10;2.27;;;;;;;;;;6168554;28;20022;-88
2022/05/13 06:08:13;;;;;;;11.77;3.20;;;;;;;;;;6175259;28;20653;-89
2022/05/13 06:11:13;;;;;;;10.03;3.00;;;;;;;;;;6168997;28;20027;-88
2022/05/13 06:14:13;;;;;;;12.13;3.20;;;;;;;;;;6165177;28;20018;-88
2022/05/13 06:17:14;;;;;;;11.57;3.27;;;;;;;;;;6174021;28;20019;-88
2022/05/13 06:20:15;;;;;;;7.70;3.30;;;;;;;;;;6167749;28;20914;-88
2022/05/13 06:23:15;;;;;;;9.77;2.83;;;;;;;;;;6168512;28;20019;-88
2022/05/13 06:26:16;;;;;;;6.10;2.50;;;;;;;;;;6182183;28;20019;-89
2022/05/13 06:29:17;;;;;;;5.33;1.90;;;;;;;;;;6175666;28;20026;-88
2022/05/13 06:32:17;;;;;;;6.75;1.73;;;;;;;;;;6178057;28;20014;-87
2022/05/13 06:35:17;;;;;;;4.10;1.33;;;;;;;;;;6176275;28;20029;-88
2022/05/13 06:38:20;;;;;;;5.20;1.88;;;;;;;;;;6181359;28;20042;-89
2022/05/13 06:41:20;;;;;;;9.95;2.40;;;;;;;;;;6194710;28;20040;-89
2022/05/13 06:44:20;;;;;;;12.23;2.13;;;;;;;;;;6203212;28;20031;-88
2022/05/13 06:47:21;;;;;;;9.60;2.77;;;;;;;;;;6181930;28;20023;-88
2022/05/13 06:50:21;;;;;;;10.87;3.00;;;;;;;;;;6182309;28;20023;-88
2022/05/13 06:53:22;;;;;;;8.80;3.87;;;;;;;;;;6182977;28;20114;-87
2022/05/13 06:56:22;;;;;;;8.38;3.20;;;;;;;;;;6174000;28;20066;-87
2022/05/13 06:59:22;;;;;;;11.83;3.20;;;;;;;;;;6170527;28;20019;-87
2022/05/13 07:02:23;;;;;;;7.93;2.40;;;;;;;;;;6166736;28;20038;-86
2022/05/13 07:05:23;;;;;;;13.20;2.93;;;;;;;;;;6180785;28;20027;-87
2022/05/13 07:08:24;;;;;;;6.93;2.95;;;;;;;;;;6187937;28;20030;-87
2022/05/13 07:11:24;;;;;;;7.60;3.30;;;;;;;;;;6176727;28;20030;-87
2022/05/13 07:14:24;;;;;;;11.43;3.65;;;;;;;;;;6175157;28;20030;-87
2022/05/13 07:17:25;;;;;;;9.80;2.80;;;;;;;;;;6176011;28;20116;-88
2022/05/13 07:20:27;;;;;;;7.97;2.90;;;;;;;;;;6180990;28;20015;-88
2022/05/13 07:23:28;;;;;;;8.15;2.80;;;;;;;;;;6171038;28;20026;-87
2022/05/13 07:26:28;;;;;;;7.78;2.90;;;;;;;;;;6167841;28;20054;-88
2022/05/13 07:29:28;;;;;;;4.50;2.20;;;;;;;;;;6188582;28;20060;-88
2022/05/13 07:32:29;;;;;;;4.13;2.40;;;;;;;;;;6197613;28;20019;-87
2022/05/13 07:35:29;;;;;;;9.03;2.53;;;;;;;;;;6183815;28;20033;-87
2022/05/13 07:38:30;;;;;;;6.47;2.20;;;;;;;;;;6188810;28;20084;-87
2022/05/13 07:41:31;;;;;;;7.32;2.42;;;;;;;;;;6187967;28;20011;-88
2022/05/13 07:44:32;;;;;;;12.73;2.05;;;;;;;;;;6183739;28;20022;-87
2022/05/13 07:47:33;;;;;;;8.05;2.83;;;;;;;;;;6202930;28;20022;-87
2022/05/13 07:50:34;;;;;;;6.32;2.80;;;;;;;;;;6190129;28;20398;-87
2022/05/13 07:53:34;;;;;;;7.20;2.33;;;;;;;;;;6189942;28;20029;-87
2022/05/13 07:56:35;;;;;;;11.93;2.65;;;;;;;;;;6185755;28;20396;-88
2022/05/13 08:00:24;;;;;;;8.03;3.17;;;;;;;;;;6202005;28;20018;-88
2022/05/13 08:02:59;;;;;;;15.82;3.10;;;;;;;;;;6176449;28;20631;-87
2022/05/13 08:06:03;;;;;;;11.93;2.70;;;;;;;;;;6188737;28;20022;-87
2022/05/13 08:09:03;;;;;;;9.82;2.75;;;;;;;;;;6181845;28;20489;-87
2022/05/13 08:12:04;;;;;;;7.17;2.37;;;;;;;;;;6190087;28;20034;-87
2022/05/13 08:15:04;;;;;;;6.05;2.65;;;;;;;;;;6186541;28;20085;-87
2022/05/13 08:18:05;;;;;;;4.97;2.30;;;;;;;;;;6175366;28;20015;-87
2022/05/13 08:21:06;;;;;;;11.93;2.85;;;;;;;;;;6197151;28;20054;-87
2022/05/13 08:24:06;;;;;;;7.20;2.83;;;;;;;;;;6193216;28;20019;-87
2022/05/13 08:27:07;;;;;;;10.95;2.97;;;;;;;;;;6200953;28;20049;-87
2022/05/13 08:30:09;;;;;;;9.82;3.47;;;;;;;;;;6187870;28;20025;-87
2022/05/13 08:33:09;;;;;;;9.10;3.65;;;;;;;;;;6187638;28;20037;-87
2022/05/13 08:36:09;;;;;;;13.63;3.57;;;;;;;;;;6178539;28;20023;-87
2022/05/13 08:39:10;;;;;;;5.67;2.53;;;;;;;;;;6173651;28;20050;-87
2022/05/13 08:42:25;;;;;;;6.57;2.50;;;;;;;;;;6166161;28;20015;-87
2022/05/13 08:45:26;;;;;;;9.50;2.80;;;;;;;;;;6173981;28;20031;-88
2022/05/13 08:48:45;;;;;;;12.50;2.58;;;;;;;;;;6181302;28;20020;-88
2022/05/13 08:51:53;;;;;;;4.97;2.00;;;;;;;;;;6171759;28;20015;-87
2022/05/13 08:54:54;;;;;;;6.43;1.90;;;;;;;;;;6166531;28;20023;-88
2022/05/13 08:57:56;;;;;;;10.57;2.03;;;;;;;;;;6180627;28;20431;-87
2022/05/13 09:00:58;;;;;;;7.10;1.90;;;;;;;;;;6165582;28;20002;-87
2022/05/13 09:04:02;;;;;;;5.20;1.65;;;;;;;;;;6174356;28;20410;-87
2022/05/13 09:07:05;;;;;;;5.22;2.17;;;;;;;;;;6170401;28;20031;-87
2022/05/13 09:10:10;;;;;;;3.97;1.70;;;;;;;;;;6173837;28;20027;-87
2022/05/13 09:13:18;;;;;;;11.45;2.67;;;;;;;;;;6174547;28;20037;-88
2022/05/13 09:16:25;;;;;;;7.32;2.40;;;;;;;;;;6169767;28;20019;-87
2022/05/13 09:19:30;;;;;;;6.35;2.40;;;;;;;;;;6172352;28;20015;-88
2022/05/13 09:22:35;;;;;;;4.70;2.15;;;;;;;;;;6167335;28;20015;-88
2022/05/13 09:25:35;;;;;;;10.23;2.75;;;;;;;;;;6175996;28;20015;-87
2022/05/13 09:28:37;;;;;;;8.83;2.80;;;;;;;;;;6192033;28;20067;-88
2022/05/13 09:31:41;;;;;;;7.57;3.00;;;;;;;;;;6185753;28;20091;-88
2022/05/13 09:34:50;;;;;;;10.65;3.50;;;;;;;;;;6199817;28;20026;-86
2022/05/13 09:37:50;;;;;;;8.27;2.75;;;;;;;;;;6192781;28;20506;-87
2022/05/13 09:41:01;;;;;;;13.60;3.60;;;;;;;;;;6192485;28;20018;-87
2022/05/13 09:44:04;;;;;;;11.32;4.03;;;;;;;;;;6183514;28;20019;-87
2022/05/13 09:47:09;;;;;;;9.98;3.75;;;;;;;;;;6189531;28;20026;-87
2022/05/13 09:50:17;;;;;;;8.13;3.30;;;;;;;;;;6188555;28;20557;-88
2022/05/13 09:53:20;;;;;;;7.50;3.45;;;;;;;;;;6191559;28;20031;-88
2022/05/13 09:56:21;;;;;;;9.52;3.17;;;;;;;;;;6165464;28;20046;-88
2022/05/13 09:59:24;;;;;;;6.55;3.13;;;;;;;;;;6173333;28;20115;-88
2022/05/13 10:02:30;;;;;;;4.68;2.92;;;;;;;;;;6179641;28;20085;-88
2022/05/13 10:05:33;;;;;;;8.60;2.85;;;;;;;;;;6168923;28;20031;-88
2022/05/13 10:08:33;;;;;;;5.72;2.85;;;;;;;;;;6175341;28;20027;-88
2022/05/13 10:14:54;;;;;;;10.23;3.20;;;;;;;;;;6175918;28;20466;-87
2022/05/13 10:18:01;;;;;;;6.97;2.47;;;;;;;;;;6177150;28;20114;-88
2022/05/13 10:21:06;;;;;;;10.35;3.08;;;;;;;;;;6173736;28;20039;-88
2022/05/13 10:24:25;;;;;;;10.63;3.95;;;;;;;;;;6173918;28;20027;-88
2022/05/13 10:27:30;;;;;;;10.05;3.90;;;;;;;;;;6186812;28;20038;-87
2022/05/13 10:30:39;;;;;;;9.13;3.20;;;;;;;;;;6176637;28;20685;-88
2022/05/13 10:33:50;;;;;;;8.13;3.13;;;;;;;;;;6179049;28;20025;-88
2022/05/13 10:37:09;;;;;;;5.75;2.90;;;;;;;;;;6188694;28;20050;-88
2022/05/13 10:40:11;;;;;;;11.20;3.50;;;;;;;;;;6177020;28;20112;-88
2022/05/13 10:43:19;;;;;;;12.38;4.35;;;;;;;;;;6172897;28;20019;-88
2022/05/13 10:46:21;;;;;;;9.93;3.38;;;;;;;;;;6177459;28;20082;-88
2022/05/13 10:49:25;;;;;;;9.65;3.50;;;;;;;;;;6196951;28;20014;-88
2022/05/13 10:52:44;;;;;;;6.75;2.30;;;;;;;;;;6182678;28;20031;-88
2022/05/13 10:55:44;;;;;;;7.35;2.95;;;;;;;;;;6179266;28;20034;-88
2022/05/13 10:58:55;;;;;;;15.77;3.83;;;;;;;;;;6176515;28;20022;-88
2022/05/13 11:02:15;;;;;;;4.93;2.75;;;;;;;;;;6173487;28;20027;-88
2022/05/13 11:05:28;;;;;;;7.87;3.33;;;;;;;;;;6182058;28;20103;-88
2022/05/13 11:08:28;;;;;;;5.18;2.45;;;;;;;;;;6190478;28;20053;-87
2022/05/13 11:11:35;;;;;;;10.23;2.53;;;;;;;;;;6182468;28;20479;-87
2022/05/13 11:14:55;;;;;;;7.70;2.80;;;;;;;;;;6192299;28;20136;-87
2022/05/13 11:18:05;;;;;;;15.25;3.38;;;;;;;;;;6189180;28;20038;-87
2022/05/13 11:21:08;;;;;;;7.90;2.50;;;;;;;;;;6165453;28;20497;-86
2022/05/13 11:27:52;;;;;;;5.68;2.30;;;;;;;;;;6201034;28;20423;-87
2022/05/13 11:31:02;;;;;;;9.90;2.17;;;;;;;;;;6169254;28;20041;-87
2022/05/13 11:34:22;;;;;;;3.90;1.70;;;;;;;;;;6194349;28;20018;-88
2022/05/13 11:37:25;;;;;;;5.20;2.08;;;;;;;;;;6178112;28;20047;-88
2022/05/13 11:40:29;;;;;;;6.40;1.95;;;;;;;;;;6172411;28;20030;-88
2022/05/13 11:43:30;;;;;;;9.35;2.10;;;;;;;;;;6190571;28;20030;-87
2022/05/13 11:46:33;;;;;;;9.93;2.10;;;;;;;;;;6186343;28;20022;-87
2022/05/13 11:49:35;;;;;;;4.72;2.28;;;;;;;;;;6182073;28;20026;-87
2022/05/13 11:52:35;;;;;;;9.30;2.17;;;;;;;;;;6186535;28;20022;-87
2022/05/13 11:55:35;;;;;;;;;;;;;;;;;;6186148;28;20042;-88
2022/05/13 11:58:47;;;;;;;5.70;2.15;;;;;;;;;;6183687;28;19906;-88
2022/05/13 12:01:48;;;;;;;6.38;1.48;;;;;;;;;;6189841;28;20071;-89
2022/05/13 12:05:01;;;;;;;4.85;1.30;;;;;;;;;;6177301;28;20028;-88
2022/05/13 12:08:07;;;;;;;5.32;1.48;;;;;;;;;;6169580;28;20038;-88
2022/05/13 12:11:10;;;;;;;7.75;2.10;;;;;;;;;;6175814;28;20030;-88
2022/05/13 12:14:29;;;;;;;4.35;1.45;;;;;;;;;;6175456;28;20041;-88
2022/05/13 12:17:33;;;;;;;5.45;1.70;;;;;;;;;;6186608;28;20023;-88
2022/05/13 12:20:36;;;;;;;5.90;1.45;;;;;;;;;;6169586;28;20003;-89
2022/05/13 12:23:40;;;;;;;6.22;1.83;;;;;;;;;;6174303;28;20047;-90
2022/05/13 12:26:53;;;;;;;4.13;1.73;;;;;;;;;;6189421;28;20030;-89
2022/05/13 12:29:56;;;;;;;7.20;1.80;;;;;;;;;;6196843;28;20019;-89
2022/05/13 12:33:16;;;;;;;6.30;1.83;;;;;;;;;;6171124;28;20426;-89
2022/05/13 12:39:54;;;;;;;3.00;1.42;;;;;;;;;;6178425;28;20140;-90
2022/05/13 12:42:58;;;;;;;5.97;1.90;;;;;;;;;;6179407;28;20035;-89
2022/05/13 12:46:01;;;;;;;5.47;1.75;;;;;;;;;;6173605;28;20490;-89
2022/05/13 12:49:09;;;;;;;3.72;1.65;;;;;;;;;;6180428;28;20130;-89
2022/05/13 12:52:12;;;;;;;4.72;1.55;;;;;;;;;;6185200;28;20033;-89
2022/05/13 12:55:18;;;;;;;6.00;1.60;;;;;;;;;;6178042;28;20027;-89
2022/05/13 12:58:18;;;;;;;5.20;1.75;;;;;;;;;;6188891;28;20134;-89
2022/05/13 13:01:20;;;;;;;;;;;;;;;;;;6177882;28;20049;-89
2022/05/13 13:04:23;;;;;;;8.77;2.35;;;;;;;;;;6188730;28;19942;-89
2022/05/13 13:07:33;;;;;;;9.05;2.20;;;;;;;;;;6184066;28;20015;-89
2022/05/13 13:10:33;;;;;;;2.88;1.60;;;;;;;;;;6181008;28;20003;-89
2022/05/13 13:13:36;;;;;;;4.00;1.50;;;;;;;;;;6186590;28;20034;-89
2022/05/13 13:16:40;;;;;;;8.50;2.17;;;;;;;;;;6195702;28;20015;-89
2022/05/13 13:19:44;;;;;;;8.65;2.15;;;;;;;;;;6214147;28;20042;-89
2022/05/13 13:22:47;;;;;;;5.32;1.90;;;;;;;;;;6188082;28;20083;-89
2022/05/13 13:25:51;;;;;;;6.47;1.48;;;;;;;;;;6193412;28;20022;-89
2022/05/13 13:28:53;;;;;;;5.53;1.38;;;;;;;;;;6184147;28;20026;-88
2022/05/13 13:31:55;;;;;;;5.22;1.90;;;;;;;;;;6180855;28;20046;-89
2022/05/13 13:34:57;;;;;;;3.00;1.20;;;;;;;;;;6197516;28;20378;-89
2022/05/13 13:37:58;;;;;;;7.70;1.90;;;;;;;;;;6188097;28;20039;-88
2022/05/13 13:40:58;;;;;;;4.85;1.70;;;;;;;;;;6182280;28;20080;-89
2022/05/13 13:44:03;;;;;;;4.97;2.20;;;;;;;;;;6167085;28;20054;-88
2022/05/13 13:47:05;;;;;;;8.65;2.50;;;;;;;;;;6174136;28;20015;-88
2022/05/13 13:50:06;;;;;;;4.15;2.65;;;;;;;;;;6180488;28;20015;-88
2022/05/13 13:53:08;;;;;;;6.18;2.47;;;;;;;;;;6192743;28;20049;-88
2022/05/13 13:56:12;;;;;;;5.15;2.08;;;;;;;;;;6183235;28;20027;-89
2022/05/13 13:59:33;;;;;;;2.75;1.83;;;;;;;;;;6179308;28;20023;-88
2022/05/13 14:03:12;;;;;;;4.75;1.83;;;;;;;;;;6183100;28;20449;-89
2022/05/13 14:06:15;;;;;;;5.50;1.83;;;;;;;;;;6185007;28;20038;-89
2022/05/13 14:09:27;;;;;;;5.95;2.22;;;;;;;;;;6162424;28;20023;-88
2022/05/13 14:12:28;;;;;;;7.15;2.00;;;;;;;;;;6196725;28;20023;-88
2022/05/13 14:15:32;;;;;;;6.40;1.60;;;;;;;;;;6193112;28;20025;-88
2022/05/13 14:18:34;;;;;;;6.70;2.03;;;;;;;;;;6198106;28;20266;-88
2022/05/13 14:21:34;;;;;;;5.72;1.95;;;;;;;;;;6193089;28;20046;-88
2022/05/13 14:24:35;;;;;;;;;;;;;;;;;;6196357;28;20090;-88
2022/05/13 14:27:37;;;;;;;5.90;1.67;;;;;;;;;;6191782;28;19910;-88
2022/05/13 14:30:38;;;;;;;5.85;1.23;;;;;;;;;;6193786;28;20027;-88
2022/05/13 14:33:40;;;;;;;6.95;2.40;;;;;;;;;;6178615;28;20011;-88
2022/05/13 14:36:42;;;;;;;1.88;1.17;;;;;;;;;;6180249;28;20050;-88
2022/05/13 14:39:51;;;;;;;5.15;1.40;;;;;;;;;;6194476;28;20025;-88
2022/05/13 14:42:53;;;;;;;5.28;2.30;;;;;;;;;;6191870;28;20470;-87
2022/05/13 14:46:07;;;;;;;3.97;1.85;;;;;;;;;;6181190;28;20018;-87
2022/05/13 14:49:28;;;;;;;4.05;2.28;;;;;;;;;;6189815;28;20014;-87
2022/05/13 14:52:39;;;;;;;7.50;2.45;;;;;;;;;;6191278;28;20018;-87
2022/05/13 14:55:43;;;;;;;3.25;2.10;;;;;;;;;;6172239;28;20037;-87
2022/05/13 14:58:57;;;;;;;5.22;1.90;;;;;;;;;;6202549;28;20086;-87
2022/05/13 15:01:57;;;;;;;3.75;2.08;;;;;;;;;;6177942;28;20110;-87
2022/05/13 15:05:18;;;;;;;5.60;1.63;;;;;;;;;;6182812;28;20023;-87
2022/05/13 15:08:25;;;;;;;14.70;3.10;;;;;;;;;;6197068;28;20042;-87
2022/05/13 15:11:25;;;;;;;4.50;1.63;;;;;;;;;;6178971;28;20018;-87
2022/05/13 15:14:26;;;;;;;5.97;2.40;;;;;;;;;;6185626;28;20038;-87
2022/05/13 15:17:26;;;;;;;4.47;2.10;;;;;;;;;;6204002;28;20030;-86
2022/05/13 15:20:27;;;;;;;6.00;2.20;;;;;;;;;;6188430;28;20022;-86
2022/05/13 15:23:27;;;;;;;9.38;2.20;;;;;;;;;;6193406;28;20557;-87
2022/05/13 15:26:29;;;;;;;5.00;1.70;;;;;;;;;;6181270;28;20025;-87
2022/05/13 15:29:35;;;;;;;10.00;1.88;;;;;;;;;;6172093;28;20537;-87
2022/05/13 15:32:35;;;;;;;3.45;1.90;;;;;;;;;;6185905;28;20741;-87
2022/05/13 15:35:35;;;;;;;8.23;1.50;;;;;;;;;;6188754;28;20019;-87
2022/05/13 15:38:36;;;;;;;6.13;2.07;;;;;;;;;;6180033;28;20035;-87
2022/05/13 15:41:36;;;;;;;10.93;1.57;;;;;;;;;;6165922;28;20019;-87
2022/05/13 15:44:36;;;;;;;6.00;1.57;;;;;;;;;;6175909;28;20019;-87
2022/05/13 15:47:37;;;;;;;5.63;2.00;;;;;;;;;;6180831;28;20014;-88
2022/05/13 15:53:56;;;;;;;5.28;1.35;;;;;;;;;;6180421;28;20035;-86
2022/05/13 15:56:57;;;;;;;3.57;1.50;;;;;;;;;;6190342;28;20030;-86
2022/05/13 15:59:57;;;;;;;;;;;;;;;;;;6188200;28;20023;-87
2022/05/13 16:02:58;;;;;;;3.92;1.42;;;;;;;;;;6181333;28;19911;-88
2022/05/13 16:05:59;;;;;;;6.55;1.83;;;;;;;;;;6178745;28;20076;-87
2022/05/13 16:08:59;;;;;;;4.90;2.03;;;;;;;;;;6181204;28;20030;-87
2022/05/13 16:12:01;;;;;;;6.07;1.80;;;;;;;;;;6187364;28;20544;-87
2022/05/13 16:15:03;;;;;;;7.63;1.85;;;;;;;;;;6197930;28;20022;-87
2022/05/13 16:18:05;;;;;;;9.65;2.35;;;;;;;;;;6196965;28;20090;-87
2022/05/13 16:21:06;;;;;;;4.35;1.83;;;;;;;;;;6184567;28;20019;-87
2022/05/13 16:24:11;;;;;;;5.40;1.90;;;;;;;;;;6192294;28;20029;-89
2022/05/13 16:27:14;;;;;;;7.35;2.10;;;;;;;;;;6194693;28;20030;-88
2022/05/13 16:30:15;;;;;;;4.28;1.70;;;;;;;;;;6190668;28;20031;-87
2022/05/13 16:33:16;;;;;;;6.10;1.65;;;;;;;;;;6190532;28;20045;-88
2022/05/13 16:36:16;;;;;;;5.73;2.07;;;;;;;;;;6186277;28;20073;-86
2022/05/13 16:39:16;;;;;;;4.50;2.43;;;;;;;;;;6197309;28;20066;-88
2022/05/13 16:42:16;;;;;;;4.30;1.97;;;;;;;;;;6185272;28;20037;-88
2022/05/13 16:45:17;;;;;;;3.77;1.83;;;;;;;;;;6180861;28;20053;-88
2022/05/13 16:48:17;;;;;;;6.73;2.33;;;;;;;;;;6172838;28;20030;-87
2022/05/13 16:51:17;;;;;;;3.10;2.17;;;;;;;;;;6163162;28;20038;-87
2022/05/13 16:54:18;;;;;;;6.57;2.10;;;;;;;;;;6182166;28;20027;-86
2022/05/13 16:57:18;;;;;;;7.40;2.20;;;;;;;;;;6170729;28;20027;-86
2022/05/13 17:00:19;;;;;;;3.47;2.47;;;;;;;;;;6181922;28;20137;-86
2022/05/13 17:03:20;;;;;;;10.02;2.15;;;;;;;;;;6167962;28;20027;-86
2022/05/13 17:06:20;;;;;;;7.40;2.20;;;;;;;;;;6174535;28;20081;-87
2022/05/13 17:19:20;;;;;;;6.05;2.40;;;;;;;;;;6167296;28;20019;-87
2022/05/13 17:22:21;;;;;;;5.22;2.40;;;;;;;;;;6167690;28;20030;-86
2022/05/13 17:25:21;;;;;;;3.67;2.57;;;;;;;;;;6166056;28;20019;-87
2022/05/13 17:28:21;;;;;;;6.63;2.27;;;;;;;;;;6160979;28;20054;-86
2022/05/13 17:31:22;;;;;;;7.20;3.27;;;;;;;;;;6164281;28;20055;-87
2022/05/13 17:34:22;;;;;;;4.03;2.23;;;;;;;;;;6166056;28;20011;-86
2022/05/13 17:37:28;;;;;;;4.50;2.30;;;;;;;;;;6191860;28;20043;-86
2022/05/13 17:40:34;;;;;;;4.43;2.00;;;;;;;;;;6171533;28;20022;-87
2022/05/13 17:43:34;;;;;;;4.57;2.65;;;;;;;;;;6164488;28;20231;-87
2022/05/13 17:46:36;;;;;;;5.97;2.73;;;;;;;;;;6170144;28;21860;-87
2022/05/13 17:49:36;;;;;;;;;;;;;;;;;;6171676;28;20031;-87
2022/05/13 17:52:36;;;;;;;6.45;3.38;;;;;;;;;;6163318;28;19906;-87
2022/05/13 17:55:36;;;;;;;9.47;3.07;;;;;;;;;;6178013;28;20034;-87
2022/05/13 17:58:38;;;;;;;8.83;2.87;;;;;;;;;;6170681;28;20047;-87
2022/05/13 18:01:38;;;;;;;6.90;2.97;;;;;;;;;;6175380;28;20022;-87
2022/05/13 18:04:38;;;;;;;5.50;2.77;;;;;;;;;;6176358;28;20026;-86
2022/05/13 18:07:38;;;;;;;14.17;7.23;;;;;;;;;;6187096;28;20509;-87
2022/05/13 18:10:40;;;;;;;35.23;17.37;;;;;;;;;;6176206;28;20026;-87
2022/05/13 18:13:40;;;;;;;32.22;15.43;;;;;;;;;;6190426;28;20022;-88
2022/05/13 18:16:41;;;;;;;13.07;6.10;;;;;;;;;;6193277;28;20011;-87
2022/05/13 18:19:42;;;;;;;12.75;5.40;;;;;;;;;;6206810;28;20003;-87
2022/05/13 18:22:42;;;;;;;10.70;4.47;;;;;;;;;;6191727;28;20018;-86
2022/05/13 18:25:47;;;;;;;12.30;5.53;;;;;;;;;;6185702;28;20018;-87
2022/05/13 18:28:47;;;;;;;7.43;4.03;;;;;;;;;;6194374;28;20019;-86
2022/05/13 18:31:48;;;;;;;7.80;2.87;;;;;;;;;;6186140;28;20022;-86
2022/05/13 18:34:48;;;;;;;5.27;2.63;;;;;;;;;;6180701;28;20018;-87
2022/05/13 18:37:49;;;;;;;13.63;5.97;;;;;;;;;;6176708;28;20031;-87
2022/05/13 18:47:28;;;;;;;7.90;3.70;;;;;;;;;;6165352;28;20027;-87
2022/05/13 18:50:31;;;;;;;10.30;4.70;;;;;;;;;;6168538;28;20042;-86
2022/05/13 18:53:32;;;;;;;11.98;3.90;;;;;;;;;;6173855;28;20019;-87
2022/05/13 18:56:35;;;;;;;8.77;3.73;;;;;;;;;;6180614;28;20071;-86
2022/05/13 18:59:36;;;;;;;10.20;3.83;;;;;;;;;;6166040;28;20025;-86